Detall de PIREP

Printer-friendly versionPDF version

[2015/12/17 17:32:00]
Flight IATA:CT1004
Pilot Number:012
Company ICAO:CAT
Aircraft Type:C750/F
PAX:4
Departing Airport: LIEA
Destination Airport: EDDF
Alternate Airport:EDDL
Online: VATSIM
Route:GOPAT UL978 OKBON UN851 TORTU UM858 SRN UL615 DESIP UN851 ROLSA Z162 ZUE T163 PSA
Flight Level:F430
No Slew and time accel
No pause
Crash detect
Detect pilot in Cockpit between each 30 and 45 minutes
17:32 Zero fuel Weight: 22905 Lbs, Fuel Weight: 6671 Lbs
17:32 VATSIM:LIEA 171720Z 00000KT CAVOK 11/09 Q1029
17:32 VATSIM:EDDF 171720Z 19005KT 9999 FEW004 BKN090 12/11 Q1024 NOSIG
17:32 X-MAS CHARTER
17:32 Parking Brakes off
17:36 Take-off
17:36 Take off Weight: 29507 Lbs
17:36 Wind: 000º @ 000 Knots Heading: 204º
17:36 POS N40º 37´ 53´´ E008º 17´ 25´´
17:36 Gear Up: 157 Knots
17:36 Flaps:3 at 157 Knots
17:36 Flaps:2 at 165 Knots
17:36 Flaps:0 at 172 Knots
17:47 TOC
17:47 Fuel Weight: 6055 Lb
17:51 Wind:339º@041 Knots Heading: 358º Ground Speed: 442 Knots Altitude 43464 ft
18:06 Wind:330º@031 Knots Heading: 002º Ground Speed: 462 Knots Altitude 43448 ft
18:21 Wind:330º@018 Knots Heading: 031º Ground Speed: 478 Knots Altitude 43454 ft
18:36 Wind:311º@021 Knots Heading: 349º Ground Speed: 473 Knots Altitude 43402 ft
18:40 TOD
18:40 Fuel Weight: 4957 Lb
18:51 Wind:247º@022 Knots Heading: 002º Ground Speed: 371 Knots Altitude 15482 ft
19:01 Flaps:2 at 216 Knots
19:01 Flaps:3 at 196 Knots
19:02 Flaps:4 at 143 Knots
19:06 Wind:350º@001 Knots Heading: 245º Ground Speed: 165 Knots Altitude 3822 ft
19:07 Flaps:5 at 153 Knots
19:07 Gear Down: 148 Knots
19:10 TouchDown:Rate -302 ft/min Speed: 121 Knots
19:10 VATSIM:EDDF 171850Z 20003KT 9999 BCFG MIFG FEW001 SCT300 11/10 Q1024 NOSIG
19:10 Land
19:10 Wind:358º@002 Knots
19:10 Heading: 249º
19:10 Flight Duration: 01:34
19:10 Landing Weight: 27450 Lbs
19:10 POS N50º 02´ 10´´ E008º 34´ 14´´
19:21 Parking brakes on
19:21 Block to Block Duration: 01:49
19:21 Final Fuel: 4424 Lbls
19:21 Spent Fuel: 2246 Lbls
19:21 Flight Length: 633 NM
19:21 TOD Land Length: 149 NM

Exportar CSV

Powered by Drupal - Modified by Danger4k